Redondo, Valles Caldera, New Mexico Weather observations

Data are for 10 minute period ending at time listed.
 Day   Time   Solar   Ave.   Ave.  Ave.  Vector  Max.   Baro.   Total    
  of    of     Rad.   Air    Rel.  Wind   Wind   Wind  Press.  Precip.   
Year   Day            Temp.  Hum.  Speed  Dir.   Gust                    
2017   (MST)  Kw/m2    F      %     mph   deg.    mph    mb.     in.     
-------------------------------------------------------------------------
  15    8:30   0.00   26.3    96    1.3   232     5.4   682.4    0.01 
  15    8:40   0.00   26.4    96    0.0   323     1.2   682.5    0.00 
  15    8:50   0.01   26.7    96    0.0     0     0.0   682.6    0.00 
  15    9:00   0.01   26.9    96    0.0     0     0.0   682.6    0.00 
  15    9:10   0.01   27.1    96    0.0     0     0.0   682.6    0.00 
  15    9:20   0.01   27.6    96    0.0     0     0.0   682.5    0.00 
  15    9:30   0.01   28.0    96    0.0     0     0.0   682.5    0.02 
  15    9:40   0.02   28.5    96    0.0     0     0.0   682.5    0.01 
  15    9:50   0.02   28.6    96    0.0     0     0.0   682.5    0.01 
  15   10:00   0.02   29.2    96    0.0     0     0.0   682.5    0.00 
  15   10:10   0.02   29.0    96    0.0     0     0.0   682.5    0.00 
  15   10:20   0.02   28.6    96    0.0     0     0.0   682.4    0.11 
  15   10:30   0.03   28.7    96    0.0     0     0.0   682.3    0.00 
  15   10:40   0.04   29.0    96    0.0     0     0.0   682.3    0.08 
  15   10:50   0.04   30.2    96    0.0   326     1.2   682.1    0.29 
  15   11:00   0.05   30.7    96    0.1   314     1.2   682.1    0.00 
  15   11:10   0.04   31.4    96    0.0   323     1.2   681.9    0.00 
  15   11:20   0.04   31.1    96    0.0     0     0.0   681.9    0.02 
  15   11:30   0.03   30.7    96    0.0   250     1.2   681.8    0.13 
  15   11:40   0.04   29.7    96    0.0     0     0.0   681.6    0.08 
  15   11:50   0.04   30.0    96    0.0     0     0.0   681.4    0.00 
  15   12:00   0.03   29.3    96    0.0   348     1.2   681.4    0.00 
  15   12:10   0.04   28.4    95    0.0     0     0.0   681.2    0.00 
  15   12:20   0.05   29.1    96    0.0     0     0.0   681.1    0.00 
  15   12:30   0.05   29.4    96    0.0     0     0.0   680.9    0.00 
  15   12:40   0.07   30.4    96    0.7   298     6.0   680.8    0.00 
  15   12:50   0.05   30.5    95    1.3   277     6.0   680.6    0.00 
  15   13:00   0.05   30.5    95    2.0   281     4.2   680.6    0.00 
  15   13:10   0.06   30.4    95    1.9   246     7.2   680.4    0.00 
  15   13:20   0.07   31.8    96    1.7   234     4.2   680.2    0.00 
  15   13:30   0.07   31.3    95    1.2   293     4.2   680.1    0.00 
  15   13:40   0.05   32.1    96    0.3   321     1.8   680.0    0.00 
  15   13:50   0.03   30.8    95    1.3   288     4.2   679.9    0.00 
  15   14:00   0.04   29.4    95    1.5   292     5.4   679.9    0.00 
  15   14:10   0.05   28.8    95    0.2   278     2.4   679.9    0.00 
  15   14:20   0.03   28.9    95    0.1   273     2.4   679.9    0.00 
  15   14:30   0.02   29.0    95    0.0     0     0.0   679.8    0.00 
  15   14:40   0.03   28.7    95    0.0     0     0.0   679.8    0.00 
  15   14:50   0.04   30.4    96    0.1   152     1.8   679.8    0.00 
  15   15:00   0.03   31.1    96    0.0   148     1.2   679.9    0.00 
  15   15:10   0.02   30.9    96    0.0     0     0.0   679.9    0.00 
  15   15:20   0.02   29.7    95    0.0     0     0.0   679.9    0.00 
  15   15:30   0.02   28.5    95    0.0     0     0.0   679.9    0.00 
  15   15:40   0.02   28.2    95    0.0     0     0.0   679.9    0.00 
  15   15:50   0.02   28.8    95    0.0     0     0.0   679.9    0.00 
  15   16:00   0.01   29.4    96    0.0     0     0.0   679.9    0.00 
  15   16:10   0.01   28.4    95    0.0     0     0.0   679.9    0.00 
  15   16:20   0.01   27.6    95    0.0     0     0.0   679.8    0.00 
  15   16:30   0.01   27.2    95    0.0     0     0.0   679.7    0.00 
  15   16:40   0.01   26.9    95    0.0     0     0.0   679.7    0.00 
  15   16:50   0.00   26.7    95    0.0     0     0.0   679.8    0.00 
  15   17:00   0.00   26.2    95    0.0     0     0.0   680.0    0.00 
  15   17:10   0.00   25.9    95    0.0     0     0.0   680.1    0.00 
  15   17:20   0.00   25.4    95    0.0     0     0.0   680.1    0.00 
  15   17:30   0.00   25.1    95    0.0     0     0.0   680.1    0.00 
  15   17:40   0.00   25.0    95    0.0     0     0.0   680.1    0.00 
  15   17:50   0.00   24.9    95    0.0     0     0.0   680.1    0.00 
  15   18:00   0.00   24.7    95    0.0     0     0.0   680.2    0.01 
  15   18:10   0.00   24.6    95    0.0     0     0.0   680.2    0.02 
  15   18:20   0.00   24.5    95    0.0     0     0.0   680.2    0.03 
  15   18:30   0.00   24.5    95    0.0     0     0.0   680.2    0.07 
  15   18:40   0.00   24.4    95    0.0     0     0.0   680.3    0.06 
  15   18:50   0.00   24.4    95    0.0     0     0.0   680.2    0.05 
  15   19:00   0.00   24.4    95    0.0     0     0.0   680.2    0.03 
  15   19:10   0.00   24.4    95    0.0     0     0.0   680.1    0.03 
  15   19:20   0.00   24.3    95    0.0     0     0.0   680.1    0.02 
  15   19:30   0.00   24.3    95    0.0     0     0.0   680.2    0.02 
  15   19:40   0.00   24.3    95    0.0     0     0.0   680.2    0.01 
  15   19:50   0.00   24.3    95    0.0     0     0.0   680.2    0.00 
  15   20:00   0.00   24.2    95    0.0     0     0.0   680.2    0.01 
  15   20:10   0.00   24.0    95    0.0     0     0.0   680.2    0.00 
  15   20:20   0.00   23.9    95    0.0     0     0.0   680.2    0.00 
  15   20:30   0.00   23.9    95    0.0     0     0.0   680.2    0.00 
  15   20:40   0.00   23.9    95    0.0     0     0.0   680.2    0.00 
  15   20:50   0.00   23.9    95    0.0     0     0.0   680.2    0.00 
  15   21:00   0.00   24.0    95    0.0     0     0.0   680.2    0.00 
  15   21:10   0.00   24.0    95    0.0     0     0.0   680.2    0.00 
  15   21:20   0.00   24.0    95    0.0     0     0.0   680.2    0.00 
  15   21:30   0.00   23.9    95    0.0     0     0.0   680.2    0.00 
  15   21:40   0.00   23.8    95    0.0     0     0.0   680.2    0.00 
  15   21:50   0.00   23.7    95    0.0     0     0.0   680.2    0.00 
  15   22:00   0.00   23.6    95    0.0     0     0.0   680.2    0.00 
  15   22:10   0.00   23.4    95    0.0     0     0.0   680.2    0.00 
  15   22:20   0.00   23.4    95    0.0     0     0.0   680.2    0.00 
  15   22:30   0.00   23.3    94    0.0     0     0.0   680.1    0.00 
  15   22:40   0.00   23.1    94    0.0     0     0.0   680.2    0.00 
  15   22:50   0.00   22.9    94    0.0     0     0.0   680.2    0.00 
  15   23:00   0.00   22.8    94    0.0     0     0.0   680.0    0.00 
  15   23:10   0.00   22.7    94    0.0     0     0.0   680.0    0.00 
  15   23:20   0.00   22.7    94    0.0     0     0.0   680.0    0.00 
  15   23:30   0.00   22.6    94    0.0     0     0.0   680.0    0.00 
  15   23:40   0.00   22.5    94    0.0     0     0.0   680.1    0.00 
  15   23:50   0.00   22.6    94    0.0     0     0.0   680.1    0.00 
  16    0:00   0.00   22.5    94    0.0     0     0.0   680.0    0.00 
  16    0:10   0.00   22.4    94    0.0     0     0.0   680.0    0.00 
  16    0:20   0.00   22.3    94    0.0     0     0.0   680.0    0.00 
  16    0:30   0.00   22.2    94    0.0     0     0.0   680.0    0.00 
  16    0:40   0.00   22.2    94    0.0     0     0.0   680.0    0.00 
  16    0:50   0.00   22.1    94    0.0     0     0.0   680.0    0.00 
  16    1:00   0.00   22.1    94    0.0     0     0.0   680.1    0.00 
  16    1:10   0.00   22.1    94    0.0     0     0.0   680.1    0.00 
  16    1:20   0.00   22.0    94    0.0     0     0.0   680.1    0.00 
  16    1:30   0.00   22.1    94    0.0     0     0.0   680.1    0.00 
  16    1:40   0.00   22.1    94    0.0     0     0.0   680.1    0.00 
  16    1:50   0.00   22.1    94    0.0     0     0.0   680.1    0.00 
  16    2:00   0.00   22.0    94    0.0     0     0.0   680.2    0.00 
  16    2:10   0.00   22.0    94    0.0     0     0.0   680.2    0.00 
  16    2:20   0.00   22.0    94    0.0     0     0.0   680.1    0.00 
  16    2:30   0.00   22.0    94    0.0     0     0.0   680.1    0.00 
  16    2:40   0.00   22.0    94    0.0     0     0.0   680.1    0.00 
  16    2:50   0.00   22.0    94    0.0     0     0.0   680.0    0.00 
  16    3:00   0.00   22.0    94    0.0     0     0.0   680.0    0.00 
  16    3:10   0.00   22.0    94    0.0     0     0.0   679.9    0.00 
  16    3:20   0.00   22.0    94    0.0     0     0.0   679.9    0.00 
  16    3:30   0.00   21.9    94    0.0     0     0.0   679.9    0.00 
  16    3:40   0.00   21.8    94    0.0     0     0.0   679.9    0.00 
  16    3:50   0.00   21.7    94    0.0     0     0.0   679.8    0.00 
  16    4:00   0.00   21.7    94    0.0     0     0.0   679.7    0.00 
  16    4:10   0.00   21.6    94    0.0     0     0.0   679.7    0.00 
  16    4:20   0.00   21.6    94    0.0     0     0.0   679.7    0.00 
  16    4:30   0.00   21.6    94    0.0     0     0.0   679.7    0.00 
  16    4:40   0.00   21.7    94    0.0     0     0.0   679.7    0.00 
  16    4:50   0.00   21.8    94    0.0     0     0.0   679.7    0.00 
  16    5:00   0.00   21.8    94    0.0     0     0.0   679.7    0.00 
  16    5:10   0.00   21.8    94    0.0     0     0.0   679.7    0.00 
  16    5:20   0.00   21.8    94    0.0     0     0.0   679.9    0.00 
  16    5:30   0.00   21.8    94    0.0     0     0.0   679.9    0.00 
  16    5:40   0.00   21.7    94    0.0     0     0.0   679.9    0.00 
  16    5:50   0.00   21.7    94    0.0     0     0.0   680.0    0.00 
  16    6:00   0.00   21.6    94    0.0     0     0.0   680.1    0.00 
  16    6:10   0.00   21.6    94    0.0     0     0.0   680.1    0.00 
  16    6:20   0.00   21.5    94    0.0     0     0.0   680.2    0.00 
  16    6:30   0.00   21.5    94    0.0     0     0.0   680.3    0.00 
  16    6:40   0.00   21.5    94    0.0     0     0.0   680.4    0.00 
  16    6:50   0.00   21.4    94    0.0     0     0.0   680.4    0.00 
  16    7:00   0.00   21.4    94    0.0     0     0.0   680.5    0.00 
  16    7:10   0.00   21.4    94    0.0     0     0.0   680.5    0.00 
  16    7:20   0.00   21.4    94    0.0     0     0.0   680.6    0.00 
  16    7:30   0.00   21.5    94    0.0     0     0.0   680.7    0.00 
  16    7:40   0.00   21.7    94    0.0     0     0.0   680.7    0.00 
  16    7:50   0.00   21.8    94    0.0     0     0.0   680.9    0.00 
  16    8:00   0.01   22.0    94    0.0     0     0.0   680.9    0.00 
  16    8:10   0.01   22.1    94    0.0     0     0.0   681.1    0.00 
  16    8:20   0.01   22.1    94    0.0     0     0.0   681.3    0.00 

Return to Redondo, Valles Caldera graphs page.


Western Regional Climate Center,wrcc@dri.edu